Hlavní strana
METAR-TAF:

METAR-TAF

Letiště :

Båtsfjord, Norsko

zeměpisná šířka: 70-38N, zeměpisná délka: 029-44E, výška: 10 m

Aktuální stav počasí

Zpráva byla vytvořena před 35 minutami, v 16:20 UTC
Západoseverozápadní vítr 14 kt
Teplota -3°C
Vlhkost vzduchu 93%
Tlak 998 hPa
Viditelnost 10 km a více
Skoro jasno ve výšce 1500 ft
přeháňky v blízkosti

METAR: ENBS 181620Z 30014KT 9999 VCSH FEW015 M03/M04 Q0998

Čas: 17:55 (16:55 UTC)


TAF: chybějící

Stav a předpovědi počasí z více než 4 000 letišť (zprávy METAR a TAF).

Červené a žluté tečky na mapě představují dostupné meteorologické stanice.

Když kurzor umístíte na tečku, zobrazí se název stanice.

Pak kliknutím zobrazíte stav a předpověď počasí.

Chcete-li změnit mapu, kliknutím na zelené tlačítko se znaménkem +mapu přiblížíte, kliknutím na zelené tlačítko se znaménkem – mapu oddálíte a kliknutím na zelené šipky přejdete na sousední mapy.


METAR-TAF: